createdAt,value
2018-07-20T00:00:08.409Z,77.21
2018-07-20T00:01:08.458Z,76.82
2018-07-20T00:02:08.550Z,76.92
2018-07-20T00:03:08.559Z,78.02
2018-07-20T00:04:08.612Z,77.50
2018-07-20T00:05:08.660Z,77.01
2018-07-20T00:06:08.716Z,77.11
2018-07-20T00:07:08.794Z,77.63
2018-07-20T00:08:08.834Z,77.69
2018-07-20T00:09:08.889Z,77.01
2018-07-20T00:10:08.921Z,77.21
2018-07-20T00:11:08.969Z,76.34
2018-07-20T00:12:09.021Z,77.01
2018-07-20T00:13:09.073Z,77.01
2018-07-20T00:14:09.175Z,77.31
2018-07-20T00:15:09.173Z,77.21
2018-07-20T00:16:09.226Z,78.46
2018-07-20T00:17:09.275Z,77.88
2018-07-20T00:18:09.328Z,77.11
2018-07-20T00:19:09.407Z,78.17
2018-07-20T00:20:09.453Z,76.92
2018-07-20T00:21:09.488Z,78.08
2018-07-20T00:22:09.574Z,77.98
2018-07-20T00:23:09.586Z,78.27
2018-07-20T00:24:09.666Z,77.69
2018-07-20T00:25:09.686Z,79.52
2018-07-20T00:26:09.738Z,79.90
2018-07-20T00:27:09.788Z,80.68
2018-07-20T00:28:09.841Z,79.90
2018-07-20T00:29:09.929Z,81.73
2018-07-20T00:30:09.947Z,81.54
2018-07-20T00:31:09.993Z,81.30
2018-07-20T00:32:10.045Z,82.31
2018-07-20T00:33:10.097Z,81.98
2018-07-20T00:34:10.179Z,82.56
2018-07-20T00:35:10.198Z,83.62
2018-07-20T00:36:10.254Z,82.65
2018-07-20T00:37:10.306Z,83.33
2018-07-20T00:38:10.357Z,83.52
2018-07-20T00:39:10.430Z,84.29
2018-07-20T00:40:10.455Z,84.39
2018-07-20T00:41:10.554Z,83.62
2018-07-20T00:42:10.587Z,84.67
2018-07-20T00:43:10.607Z,83.04
2018-07-20T00:44:10.661Z,82.85
2018-07-20T00:45:10.736Z,83.42
2018-07-20T00:46:10.761Z,83.23
2018-07-20T00:47:10.838Z,83.81
2018-07-20T00:48:10.864Z,85.06
2018-07-20T00:49:10.917Z,84.54
2018-07-20T00:50:10.989Z,85.02
2018-07-20T00:51:11.020Z,84.73
2018-07-20T00:52:11.070Z,84.06
2018-07-20T00:53:11.121Z,85.78
2018-07-20T00:54:11.179Z,85.88
2018-07-20T00:55:11.244Z,86.36
2018-07-20T00:56:11.272Z,85.21
2018-07-20T00:57:11.324Z,85.02
2018-07-20T00:58:11.376Z,85.02
2018-07-20T00:59:11.429Z,83.19
2018-07-20T01:00:11.504Z,85.31
2018-07-20T01:01:11.529Z,86.08
2018-07-20T01:02:11.579Z,84.44
2018-07-20T01:03:11.630Z,84.06
2018-07-20T01:04:11.711Z,84.92
2018-07-20T01:05:11.733Z,84.92
2018-07-20T01:06:11.807Z,84.73
2018-07-20T01:07:11.833Z,84.92
2018-07-20T01:08:11.892Z,84.73
2018-07-20T01:09:11.969Z,84.50
2018-07-20T01:10:11.988Z,84.40
2018-07-20T01:11:12.040Z,86.13
2018-07-20T01:12:12.092Z,86.61
2018-07-20T01:13:12.140Z,86.80
2018-07-20T01:14:12.225Z,87.57
2018-07-20T01:15:12.245Z,87.19
2018-07-20T01:16:12.296Z,86.32
2018-07-20T01:17:12.372Z,86.71
2018-07-20T01:18:12.399Z,88.24
2018-07-20T01:19:12.452Z,88.34
2018-07-20T01:20:12.522Z,88.06
2018-07-20T01:21:12.548Z,87.38
2018-07-20T01:22:12.598Z,87.19
2018-07-20T01:23:12.649Z,88.06
2018-07-20T01:24:12.700Z,88.24
2018-07-20T01:25:12.781Z,89.01
2018-07-20T01:26:12.805Z,88.34
2018-07-20T01:27:12.855Z,87.76
2018-07-20T01:28:12.904Z,88.92
2018-07-20T01:29:12.957Z,89.40
2018-07-20T01:30:13.035Z,89.59
2018-07-20T01:31:13.059Z,88.73
2018-07-20T01:32:13.111Z,88.73
2018-07-20T01:33:13.162Z,88.44
2018-07-20T01:34:13.210Z,89.11
2018-07-20T01:35:13.296Z,89.59
2018-07-20T01:36:13.315Z,88.82
2018-07-20T01:37:13.361Z,87.86
2018-07-20T01:38:13.415Z,87.92
2018-07-20T01:39:13.460Z,87.24
2018-07-20T01:40:13.548Z,87.43
2018-07-20T01:41:13.565Z,88.78
2018-07-20T01:42:13.617Z,89.54
2018-07-20T01:43:13.668Z,91.08
2018-07-20T01:44:13.721Z,90.12
2018-07-20T01:45:13.794Z,90.26
2018-07-20T01:46:13.844Z,90.36
2018-07-20T01:47:13.866Z,90.36
2018-07-20T01:48:13.918Z,91.08
2018-07-20T01:49:13.970Z,90.17
2018-07-20T01:50:14.024Z,90.26
2018-07-20T01:51:14.097Z,90.12
2018-07-20T01:52:14.122Z,90.80
2018-07-20T01:53:14.172Z,90.99
2018-07-20T01:54:14.228Z,90.60
2018-07-20T01:55:14.273Z,91.56
2018-07-20T01:56:14.357Z,91.08
2018-07-20T01:57:14.376Z,91.32
2018-07-20T01:58:14.426Z,91.75
2018-07-20T01:59:14.476Z,91.56
2018-07-20T02:00:14.527Z,91.47
2018-07-20T02:01:14.610Z,91.56
2018-07-20T02:02:14.655Z,91.66
2018-07-20T02:03:14.679Z,91.75
2018-07-20T02:04:14.730Z,92.62
2018-07-20T02:05:14.782Z,91.37
2018-07-20T02:06:14.835Z,91.75
2018-07-20T02:07:14.906Z,91.66
2018-07-20T02:08:14.934Z,91.61
2018-07-20T02:09:14.985Z,92.00
2018-07-20T02:10:15.036Z,91.42
2018-07-20T02:11:15.087Z,93.05
2018-07-20T02:12:15.170Z,93.73
2018-07-20T02:13:15.186Z,93.15
2018-07-20T02:14:15.237Z,92.19
2018-07-20T02:15:15.289Z,93.73
2018-07-20T02:16:15.337Z,94.31
2018-07-20T02:17:15.413Z,94.49
2018-07-20T02:18:15.456Z,94.21
2018-07-20T02:19:15.497Z,94.49
2018-07-20T02:20:15.540Z,94.59
2018-07-20T02:21:15.593Z,94.69
2018-07-20T02:22:15.683Z,94.01
2018-07-20T02:23:15.696Z,95.17
2018-07-20T02:24:15.741Z,94.59
2018-07-20T02:25:15.793Z,95.41
2018-07-20T02:26:15.845Z,96.61
2018-07-20T02:27:15.919Z,96.51
2018-07-20T02:28:15.969Z,96.61
2018-07-20T02:29:15.995Z,95.17
2018-07-20T02:30:16.046Z,96.13
2018-07-20T02:31:16.095Z,95.75
2018-07-20T02:32:16.150Z,96.99
2018-07-20T02:33:16.244Z,96.32
2018-07-20T02:34:16.250Z,95.55
2018-07-20T02:35:16.300Z,96.27
2018-07-20T02:36:16.351Z,96.51
2018-07-20T02:37:16.416Z,96.66
2018-07-20T02:38:16.472Z,96.56
2018-07-20T02:39:16.500Z,96.66
2018-07-20T02:40:16.552Z,97.14
2018-07-20T02:41:16.600Z,96.66
2018-07-20T02:42:16.651Z,97.24
2018-07-20T02:43:16.728Z,96.18
2018-07-20T02:44:16.754Z,97.52
2018-07-20T02:45:16.801Z,96.66
2018-07-20T02:46:16.853Z,97.81
2018-07-20T02:47:16.910Z,96.37
2018-07-20T02:48:16.978Z,97.71
2018-07-20T02:49:17.003Z,96.27
2018-07-20T02:50:17.076Z,97.61
2018-07-20T02:51:17.106Z,97.61
2018-07-20T02:52:17.154Z,96.08
2018-07-20T02:53:17.232Z,96.56
2018-07-20T02:54:17.257Z,96.18
2018-07-20T02:55:17.329Z,95.70
2018-07-20T02:56:17.356Z,95.89
2018-07-20T02:57:17.968Z,97.91
2018-07-20T02:58:17.457Z,97.81
2018-07-20T02:59:17.508Z,97.61
2018-07-20T03:00:17.581Z,96.85
2018-07-20T03:01:17.635Z,96.94
2018-07-20T03:02:17.660Z,97.91
2018-07-20T03:03:17.708Z,96.75
2018-07-20T03:04:17.760Z,96.75
2018-07-20T03:05:17.811Z,97.33
2018-07-20T03:06:17.891Z,96.94
2018-07-20T03:07:17.911Z,96.85
2018-07-20T03:08:17.959Z,96.27
2018-07-20T03:09:18.011Z,97.33
2018-07-20T03:10:18.063Z,96.94
2018-07-20T03:11:18.137Z,97.04
2018-07-20T03:12:18.161Z,97.71
2018-07-20T03:13:18.214Z,96.37
2018-07-20T03:14:18.271Z,96.37
2018-07-20T03:15:18.317Z,96.85
2018-07-20T03:16:18.387Z,97.52
2018-07-20T03:17:18.412Z,97.71
2018-07-20T03:18:18.465Z,96.18
2018-07-20T03:19:18.513Z,97.33
2018-07-20T03:20:18.564Z,96.94
2018-07-20T03:21:18.637Z,97.04
2018-07-20T03:22:18.695Z,96.94
2018-07-20T03:23:18.720Z,97.04
2018-07-20T03:24:18.765Z,96.75
2018-07-20T03:25:18.815Z,96.75
2018-07-20T03:26:18.895Z,96.85
2018-07-20T03:27:18.915Z,97.71
2018-07-20T03:28:18.969Z,97.52
2018-07-20T03:29:19.021Z,97.52
2018-07-20T03:30:19.068Z,97.42
2018-07-20T03:31:19.149Z,97.14
2018-07-20T03:32:19.169Z,97.91
2018-07-20T03:33:19.220Z,97.81
2018-07-20T03:34:19.270Z,98.77
2018-07-20T03:35:19.320Z,97.76
2018-07-20T03:36:19.391Z,98.58
2018-07-20T03:37:19.422Z,99.10
2018-07-20T03:38:19.493Z,98.19
2018-07-20T03:39:19.523Z,99.01
2018-07-20T03:40:19.575Z,99.10
2018-07-20T03:41:19.622Z,99.01
2018-07-20T03:42:19.697Z,99.96
2018-07-20T03:43:19.719Z,99.87
2018-07-20T03:44:19.794Z,99.87
2018-07-20T03:45:19.820Z,99.68
2018-07-20T03:46:19.870Z,99.68
2018-07-20T03:47:19.953Z,99.96
2018-07-20T03:48:19.972Z,99.49
2018-07-20T03:49:20.021Z,99.29
2018-07-20T03:50:20.078Z,99.73
2018-07-20T03:51:20.121Z,99.99
2018-07-20T03:52:20.197Z,99.29
2018-07-20T03:53:20.224Z,99.96
2018-07-20T03:54:20.307Z,99.58
2018-07-20T03:55:20.322Z,99.87
2018-07-20T03:56:20.373Z,99.87
2018-07-20T03:57:20.421Z,99.96
2018-07-20T03:58:20.472Z,99.58
2018-07-20T03:59:20.567Z,99.49
2018-07-20T04:00:20.572Z,99.99
2018-07-20T04:01:20.623Z,99.99
2018-07-20T04:02:20.712Z,99.87
2018-07-20T04:03:20.723Z,99.49
2018-07-20T04:04:20.798Z,99.25
2018-07-20T04:05:20.822Z,98.62
2018-07-20T04:06:20.874Z,99.99
2018-07-20T04:07:20.924Z,99.01
2018-07-20T04:08:20.974Z,99.99
2018-07-20T04:09:21.048Z,99.73
2018-07-20T04:10:21.197Z,99.44
2018-07-20T04:11:21.122Z,99.68
2018-07-20T04:12:21.177Z,99.63
2018-07-20T04:13:21.230Z,99.44
2018-07-20T04:14:21.316Z,99.15
2018-07-20T04:15:21.325Z,99.34
2018-07-20T04:16:21.983Z,99.99
2018-07-20T04:17:21.424Z,99.92
2018-07-20T04:18:21.478Z,99.63
2018-07-20T04:19:21.558Z,99.82
2018-07-20T04:20:21.579Z,99.92
2018-07-20T04:21:21.625Z,99.99
2018-07-20T04:22:21.680Z,99.63
2018-07-20T04:23:21.727Z,99.99
2018-07-20T04:24:21.800Z,99.73
2018-07-20T04:25:21.849Z,99.92
2018-07-20T04:26:21.879Z,99.44
2018-07-20T04:27:21.926Z,99.92
2018-07-20T04:28:21.978Z,99.73
2018-07-20T04:29:22.026Z,99.73
2018-07-20T04:30:22.101Z,99.73
2018-07-20T04:31:22.127Z,99.54
2018-07-20T04:32:22.176Z,99.63
2018-07-20T04:33:22.227Z,99.99
2018-07-20T04:34:22.282Z,99.44
2018-07-20T04:35:22.352Z,99.82
2018-07-20T04:36:22.402Z,99.68
2018-07-20T04:37:22.433Z,99.99
2018-07-20T04:38:22.481Z,99.99
2018-07-20T04:39:22.535Z,99.68
2018-07-20T04:40:22.602Z,99.78
2018-07-20T04:41:22.654Z,99.58
2018-07-20T04:42:22.680Z,99.49
2018-07-20T04:43:22.728Z,99.78
2018-07-20T04:44:22.782Z,99.99
2018-07-20T04:45:22.833Z,99.68
2018-07-20T04:46:22.909Z,99.99
2018-07-20T04:47:22.930Z,99.99
2018-07-20T04:48:22.981Z,99.99
2018-07-20T04:49:23.046Z,99.99
2018-07-20T04:50:23.083Z,99.99
2018-07-20T04:51:23.156Z,99.99
2018-07-20T04:52:23.181Z,99.99
2018-07-20T04:53:23.231Z,99.99
2018-07-20T04:54:23.283Z,99.54
2018-07-20T04:55:23.332Z,99.99
2018-07-20T04:56:23.407Z,99.99
2018-07-20T04:57:23.459Z,99.78
2018-07-20T04:58:23.486Z,99.78
2018-07-20T04:59:23.535Z,99.99
2018-07-20T05:00:23.589Z,99.99
2018-07-20T05:01:23.683Z,99.99
2018-07-20T05:02:23.712Z,99.59
2018-07-20T05:03:23.738Z,99.99
2018-07-20T05:04:23.792Z,99.99
2018-07-20T05:05:23.843Z,99.99
2018-07-20T05:06:23.891Z,99.99
2018-07-20T05:07:23.966Z,99.99
2018-07-20T05:08:24.022Z,99.99
2018-07-20T05:09:24.048Z,99.99
2018-07-20T05:10:24.096Z,99.99
2018-07-20T05:11:24.200Z,99.99
2018-07-20T05:12:24.221Z,99.44
2018-07-20T05:13:24.246Z,99.44
2018-07-20T05:14:24.296Z,98.58
2018-07-20T05:15:24.351Z,98.19
2018-07-20T05:16:24.401Z,98.39
2018-07-20T05:17:24.475Z,99.88
2018-07-20T05:18:24.523Z,99.78
2018-07-20T05:19:24.549Z,98.44
2018-07-20T05:20:24.607Z,98.82
2018-07-20T05:21:24.665Z,98.44
2018-07-20T05:22:24.731Z,99.30
2018-07-20T05:23:24.759Z,99.59
2018-07-20T05:24:24.805Z,98.19
2018-07-20T05:25:24.856Z,99.11
2018-07-20T05:26:24.908Z,99.69
2018-07-20T05:27:24.994Z,99.88
2018-07-20T05:28:25.011Z,99.49
2018-07-20T05:29:25.060Z,99.99
2018-07-20T05:30:25.111Z,98.34
2018-07-20T05:31:25.163Z,99.30
2018-07-20T05:32:25.251Z,98.14
2018-07-20T05:33:25.265Z,99.30
2018-07-20T05:34:25.316Z,98.05
2018-07-20T05:35:25.456Z,98.14
2018-07-20T05:36:25.420Z,99.30
2018-07-20T05:37:25.491Z,98.82
2018-07-20T05:38:25.525Z,97.76
2018-07-20T05:39:25.602Z,98.24
2018-07-20T05:40:25.623Z,99.78
2018-07-20T05:41:25.671Z,98.54
2018-07-20T05:42:25.731Z,99.88
2018-07-20T05:43:25.773Z,99.40
2018-07-20T05:44:25.848Z,99.26
2018-07-20T05:45:25.875Z,99.54
2018-07-20T05:46:25.972Z,99.35
2018-07-20T05:47:25.977Z,98.68
2018-07-20T05:48:26.068Z,98.29
2018-07-20T05:49:26.083Z,97.42
2018-07-20T05:50:26.141Z,96.17
2018-07-20T05:51:26.183Z,94.97
2018-07-20T05:52:26.234Z,95.64
2018-07-20T05:53:26.372Z,95.64
2018-07-20T05:54:26.334Z,94.92
2018-07-20T05:55:26.409Z,95.02
2018-07-20T05:56:26.437Z,94.63
2018-07-20T05:57:26.489Z,94.82
2018-07-20T05:58:26.542Z,94.82
2018-07-20T05:59:26.614Z,93.86
2018-07-20T06:00:26.642Z,93.96
2018-07-20T06:01:26.717Z,94.82
2018-07-20T06:02:26.743Z,94.92
2018-07-20T06:03:26.796Z,92.94
2018-07-20T06:04:26.872Z,93.62
2018-07-20T06:05:26.908Z,93.13
2018-07-20T06:06:26.972Z,93.33
2018-07-20T06:07:27.002Z,93.91
2018-07-20T06:08:27.053Z,91.60
2018-07-20T06:09:27.103Z,91.02
2018-07-20T06:10:27.183Z,90.92
2018-07-20T06:11:27.228Z,91.40
2018-07-20T06:12:27.257Z,92.08
2018-07-20T06:13:27.316Z,93.33
2018-07-20T06:14:27.361Z,95.74
2018-07-20T06:15:27.435Z,96.51
2018-07-20T06:16:27.463Z,97.19
2018-07-20T06:17:27.547Z,96.32
2018-07-20T06:18:27.565Z,96.80
2018-07-20T06:19:27.619Z,96.89
2018-07-20T06:20:27.667Z,96.61
2018-07-20T06:21:27.734Z,97.19
2018-07-20T06:22:27.796Z,96.51
2018-07-20T06:23:27.835Z,96.32
2018-07-20T06:24:27.874Z,95.54
2018-07-20T06:25:27.928Z,95.45
2018-07-20T06:26:28.004Z,94.68
2018-07-20T06:27:28.031Z,94.10
2018-07-20T06:28:28.105Z,93.91
2018-07-20T06:29:28.134Z,93.81
2018-07-20T06:30:28.185Z,95.16
2018-07-20T06:31:28.234Z,94.87
2018-07-20T06:32:28.286Z,94.78
2018-07-20T06:33:28.365Z,93.23
2018-07-20T06:34:28.390Z,93.52
2018-07-20T06:35:28.445Z,93.33
2018-07-20T06:36:28.492Z,92.85
2018-07-20T06:37:28.546Z,93.13
2018-07-20T06:38:28.632Z,92.70
2018-07-20T06:39:28.650Z,91.44
2018-07-20T06:40:28.701Z,92.02
2018-07-20T06:41:28.752Z,90.87
2018-07-20T06:42:28.803Z,91.83
2018-07-20T06:43:28.886Z,92.36
2018-07-20T06:44:28.907Z,92.80
2018-07-20T06:45:28.964Z,92.50
2018-07-20T06:46:29.011Z,91.54
2018-07-20T06:47:29.064Z,91.54
2018-07-20T06:48:29.149Z,90.67
2018-07-20T06:49:29.171Z,90.33
2018-07-20T06:50:29.219Z,89.75
2018-07-20T06:51:29.269Z,88.40
2018-07-20T06:52:29.338Z,86.32
2018-07-20T06:53:29.418Z,84.53
2018-07-20T06:54:29.425Z,82.58
2018-07-20T06:55:29.478Z,80.54
2018-07-20T06:56:29.531Z,77.76
2018-07-20T06:57:29.585Z,75.57
2018-07-20T06:58:29.666Z,73.67
2018-07-20T06:59:29.692Z,71.58
2018-07-20T07:00:29.743Z,71.09
2018-07-20T07:01:29.800Z,70.51
2018-07-20T07:02:29.848Z,71.44
2018-07-20T07:03:29.928Z,70.86
2018-07-20T07:04:29.954Z,70.76
2018-07-20T07:05:30.004Z,69.93
2018-07-20T07:06:30.064Z,68.99
2018-07-20T07:07:30.112Z,69.12
2018-07-20T07:08:30.186Z,68.79
2018-07-20T07:09:30.255Z,68.35
2018-07-20T07:10:30.272Z,67.21
2018-07-20T07:11:30.331Z,65.89
2018-07-20T07:12:30.378Z,64.85
2018-07-20T07:13:30.433Z,66.63
2018-07-20T07:14:30.511Z,66.66
2018-07-20T07:15:30.540Z,65.01
2018-07-20T07:16:30.594Z,64.75
2018-07-20T07:17:30.648Z,67.73
2018-07-20T07:18:30.704Z,69.34
2018-07-20T07:19:30.822Z,68.12
2018-07-20T07:20:30.807Z,70.06
2018-07-20T07:21:30.863Z,69.28
2018-07-20T07:22:30.917Z,66.92
2018-07-20T07:23:31.002Z,69.28
2018-07-20T07:24:31.054Z,69.41
2018-07-20T07:25:31.083Z,69.38
2018-07-20T07:26:31.139Z,70.70
2018-07-20T07:27:31.189Z,71.86
2018-07-20T07:28:31.244Z,70.15
2018-07-20T07:29:31.322Z,70.25
2018-07-20T07:30:31.356Z,71.12
2018-07-20T07:31:31.404Z,71.70
2018-07-20T07:32:31.459Z,73.69
2018-07-20T07:33:31.515Z,73.35
2018-07-20T07:34:31.599Z,73.48
2018-07-20T07:35:31.625Z,72.55
2018-07-20T07:36:31.677Z,71.34
2018-07-20T07:37:31.732Z,71.06
2018-07-20T07:38:31.788Z,73.11
2018-07-20T07:39:31.885Z,74.47
2018-07-20T07:40:31.908Z,74.32
2018-07-20T07:41:31.948Z,73.86
2018-07-20T07:42:32.001Z,72.93
2018-07-20T07:43:32.056Z,69.18
2018-07-20T07:44:32.141Z,70.73
2018-07-20T07:45:32.168Z,69.51
2018-07-20T07:46:32.218Z,69.86
2018-07-20T07:47:32.297Z,69.93
2018-07-20T07:48:32.329Z,70.67
2018-07-20T07:49:32.383Z,69.74
2018-07-20T07:50:32.466Z,69.86
2018-07-20T07:51:32.488Z,71.15
2018-07-20T07:52:32.569Z,72.02
2018-07-20T07:53:32.599Z,72.29
2018-07-20T07:54:32.653Z,71.20
2018-07-20T07:55:32.714Z,68.44
2018-07-20T07:56:32.760Z,67.05
2018-07-20T07:57:32.839Z,66.63
2018-07-20T07:58:32.872Z,67.05
2018-07-20T07:59:32.926Z,67.31
2018-07-20T08:00:32.978Z,68.51
2018-07-20T08:01:33.033Z,66.31
2018-07-20T08:02:33.112Z,64.78
2018-07-20T08:03:33.209Z,64.46
2018-07-20T08:04:33.243Z,66.24
2018-07-20T08:05:33.254Z,63.23
2018-07-20T08:06:33.308Z,61.05
2018-07-20T08:07:33.387Z,60.41
2018-07-20T08:08:33.416Z,63.90
2018-07-20T08:09:33.492Z,61.87
2018-07-20T08:10:33.568Z,63.03
2018-07-20T08:11:33.581Z,61.80
2018-07-20T08:12:33.637Z,59.78
2018-07-20T08:13:33.695Z,59.36
2018-07-20T08:14:33.748Z,59.78
2018-07-20T08:15:33.824Z,57.78
2018-07-20T08:16:33.864Z,58.53
2018-07-20T08:17:33.915Z,62.35
2018-07-20T08:18:34.003Z,65.72
2018-07-20T08:19:34.029Z,64.43
2018-07-20T08:20:34.119Z,66.60
2018-07-20T08:21:34.137Z,67.08
2018-07-20T08:22:34.203Z,65.01
2018-07-20T08:23:34.766Z,63.39
2018-07-20T08:24:34.301Z,63.56
2018-07-20T08:25:34.400Z,64.43
2018-07-20T08:26:34.411Z,64.95
2018-07-20T08:27:34.472Z,65.33
2018-07-20T08:28:34.521Z,65.95
2018-07-20T08:29:34.627Z,61.80
2018-07-20T08:30:34.659Z,60.64
2018-07-20T08:31:34.700Z,61.25
2018-07-20T08:32:34.745Z,60.18
2018-07-20T08:33:34.804Z,60.77
2018-07-20T08:34:34.880Z,61.22
2018-07-20T08:35:34.912Z,62.48
2018-07-20T08:36:34.976Z,62.48
2018-07-20T08:37:35.024Z,63.36
2018-07-20T08:38:35.079Z,61.93
2018-07-20T08:39:35.161Z,63.10
2018-07-20T08:40:35.189Z,62.58
2018-07-20T08:41:35.244Z,62.45
2018-07-20T08:42:35.299Z,61.57
2018-07-20T08:43:35.358Z,61.54
2018-07-20T08:44:35.436Z,62.51
2018-07-20T08:45:35.468Z,62.03
2018-07-20T08:46:35.543Z,63.23
2018-07-20T08:47:35.577Z,62.57
2018-07-20T08:48:35.634Z,63.06
2018-07-20T08:49:35.723Z,62.84
2018-07-20T08:50:35.752Z,64.98
2018-07-20T08:51:35.803Z,64.78
2018-07-20T08:52:35.862Z,66.27
2018-07-20T08:53:35.918Z,65.75
2018-07-20T08:54:35.999Z,65.24
2018-07-20T08:55:36.025Z,66.05
2018-07-20T08:56:36.107Z,66.30
2018-07-20T08:57:36.139Z,66.72
2018-07-20T08:58:36.196Z,65.14
2018-07-20T08:59:36.251Z,66.05
2018-07-20T09:00:36.329Z,66.17
2018-07-20T09:01:36.364Z,69.02
2018-07-20T09:02:36.463Z,69.34
2018-07-20T09:03:36.508Z,68.57
2018-07-20T09:04:36.529Z,70.18
2018-07-20T09:05:36.594Z,69.34
2018-07-20T09:06:36.642Z,70.51
2018-07-20T09:07:36.742Z,65.11
2018-07-20T09:08:36.751Z,63.55
2018-07-20T09:09:36.808Z,63.07
2018-07-20T09:10:36.865Z,64.40
2018-07-20T09:11:36.919Z,64.98
2018-07-20T09:12:37.000Z,64.23
2018-07-20T09:13:37.076Z,64.72
2018-07-20T09:14:37.086Z,64.69
2018-07-20T09:15:37.143Z,61.60
2018-07-20T09:16:37.235Z,57.12
2018-07-20T09:17:37.252Z,59.59
2018-07-20T09:18:37.311Z,59.99
2018-07-20T09:19:37.368Z,60.57
2018-07-20T09:20:37.471Z,61.51
2018-07-20T09:21:37.499Z,62.51
2018-07-20T09:22:37.536Z,60.28
2018-07-20T09:23:37.621Z,61.18
2018-07-20T09:24:37.647Z,64.23
2018-07-20T09:25:37.706Z,60.85
2018-07-20T09:26:37.758Z,59.98
2018-07-20T09:27:37.815Z,60.34
2018-07-20T09:28:37.909Z,61.80
2018-07-20T09:29:37.927Z,62.84
2018-07-20T09:30:37.984Z,63.88
2018-07-20T09:31:38.041Z,63.71
2018-07-20T09:32:38.096Z,61.51
2018-07-20T09:33:38.178Z,64.65
2018-07-20T09:34:38.213Z,64.17
2018-07-20T09:35:38.269Z,63.00
2018-07-20T09:36:38.326Z,60.77
2018-07-20T09:37:38.381Z,61.25
2018-07-20T09:38:38.467Z,64.26
2018-07-20T09:39:38.516Z,63.78
2018-07-20T09:40:38.549Z,61.28
2018-07-20T09:41:38.607Z,61.22
2018-07-20T09:42:38.664Z,63.75
2018-07-20T09:43:38.718Z,61.90
2018-07-20T09:44:38.801Z,61.90
2018-07-20T09:45:38.835Z,61.02
2018-07-20T09:46:38.890Z,59.95
2018-07-20T09:47:38.945Z,62.64
2018-07-20T09:48:39.006Z,64.65
2018-07-20T09:49:39.081Z,56.57
2018-07-20T09:50:39.117Z,58.64
2018-07-20T09:51:39.175Z,57.86
2018-07-20T09:52:39.234Z,58.28
2018-07-20T09:53:39.295Z,58.50
2018-07-20T09:54:39.369Z,55.48
2018-07-20T09:55:39.402Z,58.89
2018-07-20T09:56:39.462Z,55.55
2018-07-20T09:57:39.514Z,56.21
2018-07-20T09:58:39.572Z,60.39
2018-07-20T09:59:40.325Z,61.89
2018-07-20T10:00:39.686Z,57.14
2018-07-20T10:01:39.744Z,61.10
2018-07-20T10:02:39.806Z,55.58
2018-07-20T10:03:39.859Z,58.02
2018-07-20T10:04:39.948Z,56.65
2018-07-20T10:05:39.974Z,57.21
2018-07-20T10:06:40.034Z,57.89
2018-07-20T10:07:40.090Z,57.79
2018-07-20T10:08:40.150Z,60.85
2018-07-20T10:09:40.235Z,66.44
2018-07-20T10:10:40.289Z,62.21
2018-07-20T10:11:40.325Z,60.21
2018-07-20T10:12:40.429Z,59.46
2018-07-20T10:13:40.442Z,56.13
2018-07-20T10:14:40.502Z,57.34
2018-07-20T10:15:40.585Z,54.82
2018-07-20T10:16:40.623Z,53.74
2018-07-20T10:17:40.677Z,51.88
2018-07-20T10:18:40.740Z,54.03
2018-07-20T10:19:40.794Z,55.60
2018-07-20T10:20:40.897Z,54.25
2018-07-20T10:21:40.914Z,54.75
2018-07-20T10:22:40.971Z,52.50
2018-07-20T10:23:41.033Z,51.22
2018-07-20T10:24:41.091Z,50.49
2018-07-20T10:25:41.229Z,52.44
2018-07-20T10:26:41.237Z,51.95
2018-07-20T10:27:41.269Z,52.12
2018-07-20T10:28:41.330Z,54.01
2018-07-20T10:29:41.395Z,52.34
2018-07-20T10:30:41.493Z,49.80
2018-07-20T10:31:41.536Z,51.27
2018-07-20T10:32:41.574Z,50.22
2018-07-20T10:33:41.632Z,50.51
2018-07-20T10:34:41.697Z,49.73
2018-07-20T10:35:41.749Z,50.61
2018-07-20T10:36:41.906Z,53.25
2018-07-20T10:37:41.873Z,53.84
2018-07-20T10:38:41.931Z,51.00
2018-07-20T10:39:41.992Z,53.86
2018-07-20T10:40:42.052Z,54.46
2018-07-20T10:41:42.136Z,55.14
2018-07-20T10:42:42.198Z,55.82
2018-07-20T10:43:42.230Z,54.46
2018-07-20T10:44:42.291Z,52.81
2018-07-20T10:45:42.351Z,50.46
2018-07-20T10:46:42.413Z,53.69
2018-07-20T10:47:42.500Z,50.63
2018-07-20T10:48:42.532Z,51.34
2018-07-20T10:49:42.594Z,52.91
2018-07-20T10:50:42.658Z,50.37
2018-07-20T10:51:42.718Z,50.24
2018-07-20T10:52:42.799Z,48.70
2018-07-20T10:53:42.835Z,54.19
2018-07-20T10:54:42.896Z,51.54
2018-07-20T10:55:42.954Z,51.27
2018-07-20T10:56:43.024Z,53.36
2018-07-20T10:57:43.101Z,49.31
2018-07-20T10:58:43.145Z,46.17
2018-07-20T10:59:43.201Z,46.76
2018-07-20T11:00:43.260Z,48.13
2018-07-20T11:01:43.334Z,47.25
2018-07-20T11:02:43.407Z,49.70
2018-07-20T11:03:43.468Z,49.99
2018-07-20T11:04:43.501Z,50.88
2018-07-20T11:05:43.564Z,51.89
2018-07-20T11:06:43.624Z,51.10
2018-07-20T11:07:43.726Z,50.93
2018-07-20T11:08:43.744Z,49.36
2018-07-20T11:09:43.810Z,51.37
2018-07-20T11:10:43.870Z,54.23
2018-07-20T11:11:43.932Z,52.08
2018-07-20T11:12:44.023Z,54.94
2018-07-20T11:13:44.060Z,51.81
2018-07-20T11:14:44.112Z,53.86
2018-07-20T11:15:44.189Z,53.28
2018-07-20T11:16:44.235Z,55.92
2018-07-20T11:17:44.321Z,52.56
2018-07-20T11:18:44.358Z,54.44
2018-07-20T11:19:44.421Z,56.01
2018-07-20T11:20:44.512Z,56.13
2018-07-20T11:21:44.538Z,52.42
2018-07-20T11:22:44.600Z,55.71
2018-07-20T11:23:44.662Z,54.77
2018-07-20T11:24:44.726Z,55.49
2018-07-20T11:25:44.823Z,57.06
2018-07-20T11:26:44.846Z,57.40
2018-07-20T11:27:44.903Z,56.75
2018-07-20T11:28:44.964Z,56.77
2018-07-20T11:29:45.024Z,54.97
2018-07-20T11:30:45.112Z,48.92
2018-07-20T11:31:45.149Z,48.43
2018-07-20T11:32:45.207Z,50.81
2018-07-20T11:33:46.169Z,49.65
2018-07-20T11:34:45.355Z,49.55
2018-07-20T11:35:45.388Z,48.18
2018-07-20T11:36:45.475Z,47.79
2018-07-20T11:37:45.513Z,47.57
2018-07-20T11:38:45.572Z,48.25
2018-07-20T11:39:45.629Z,49.87
2018-07-20T11:40:45.696Z,52.83
2018-07-20T11:41:45.787Z,54.35
2018-07-20T11:42:45.817Z,55.49
2018-07-20T11:43:45.880Z,58.45
2018-07-20T11:44:45.939Z,57.60
2018-07-20T11:45:46.022Z,55.67
2018-07-20T11:46:46.084Z,54.72
2018-07-20T11:47:46.122Z,54.40
2018-07-20T11:48:46.180Z,55.79
2018-07-20T11:49:46.243Z,57.35
2018-07-20T11:50:46.327Z,56.35
2018-07-20T11:51:46.362Z,58.11
2018-07-20T11:52:46.423Z,57.03
2018-07-20T11:53:46.487Z,57.78
2018-07-20T11:54:46.548Z,58.17
2018-07-20T11:55:46.628Z,58.11
2018-07-20T11:56:46.667Z,58.20
2018-07-20T11:57:46.752Z,56.32
2018-07-20T11:58:46.788Z,57.23
2018-07-20T11:59:46.851Z,55.86
2018-07-20T12:00:46.924Z,55.47
2018-07-20T12:01:46.997Z,56.81
2018-07-20T12:02:47.059Z,57.85
2018-07-20T12:03:47.095Z,59.19
2018-07-20T12:04:47.171Z,60.26
2018-07-20T12:05:47.210Z,60.46
2018-07-20T12:06:47.317Z,60.94
2018-07-20T12:07:47.354Z,61.53
2018-07-20T12:08:47.390Z,60.78
2018-07-20T12:09:47.455Z,58.76
2018-07-20T12:10:47.526Z,59.90
2018-07-20T12:11:47.593Z,59.74
2018-07-20T12:12:47.633Z,58.50
2018-07-20T12:13:47.715Z,58.50
2018-07-20T12:14:47.755Z,58.01
2018-07-20T12:15:47.813Z,57.03
2018-07-20T12:16:47.873Z,57.68
2018-07-20T12:17:47.976Z,57.20
2018-07-20T12:18:47.990Z,57.75
2018-07-20T12:19:48.051Z,59.77
2018-07-20T12:20:48.114Z,60.18
2018-07-20T12:21:48.170Z,57.40
2018-07-20T12:22:48.258Z,57.63
2018-07-20T12:23:48.316Z,57.63
2018-07-20T12:24:48.350Z,57.63
2018-07-20T12:25:48.414Z,59.11
2018-07-20T12:26:48.473Z,58.11
2018-07-20T12:27:48.533Z,58.99
2018-07-20T12:28:48.615Z,61.30
2018-07-20T12:29:48.677Z,62.08
2018-07-20T12:30:48.718Z,61.63
2018-07-20T12:31:48.775Z,59.02
2018-07-20T12:32:48.842Z,57.75
2018-07-20T12:33:48.926Z,57.46
2018-07-20T12:34:48.986Z,57.36
2018-07-20T12:35:49.019Z,57.98
2018-07-20T12:36:49.077Z,57.88
2018-07-20T12:37:49.141Z,57.29
2018-07-20T12:38:49.201Z,56.54
2018-07-20T12:39:49.282Z,55.88
2018-07-20T12:40:49.319Z,56.45
2018-07-20T12:41:49.383Z,56.29
2018-07-20T12:42:49.443Z,58.56
2018-07-20T12:43:49.507Z,59.74
2018-07-20T12:44:49.587Z,60.52
2018-07-20T12:45:49.651Z,61.33
2018-07-20T12:46:49.691Z,61.24
2018-07-20T12:47:49.749Z,59.22
2018-07-20T12:48:49.808Z,58.66
2018-07-20T12:49:49.895Z,57.52
2018-07-20T12:50:49.954Z,56.84
2018-07-20T12:51:49.997Z,56.84
2018-07-20T12:52:50.055Z,57.00